createdAt,value
2022-09-28T00:00:41.891Z,67.60
2022-09-28T00:03:09.228Z,69.00
2022-09-28T00:05:35.783Z,68.40
2022-09-28T00:08:02.322Z,67.80
2022-09-28T00:10:28.833Z,69.10
2022-09-28T00:12:55.470Z,69.10
2022-09-28T00:15:22.576Z,68.30
2022-09-28T00:17:49.271Z,69.10
2022-09-28T00:20:17.258Z,69.10
2022-09-28T00:22:43.797Z,66.80
2022-09-28T00:25:10.346Z,66.70
2022-09-28T00:27:36.839Z,65.90
2022-09-28T00:30:04.342Z,67.30
2022-09-28T00:32:30.919Z,67.80
2022-09-28T00:34:57.438Z,69.10
2022-09-28T00:37:23.973Z,69.10
2022-09-28T00:39:50.533Z,69.10
2022-09-28T00:42:21.756Z,69.10
2022-09-28T00:44:55.503Z,69.10
2022-09-28T00:47:25.123Z,67.80
2022-09-28T00:50:00.850Z,69.10
2022-09-28T00:52:40.730Z,69.10
2022-09-28T00:55:09.579Z,69.10
2022-09-28T00:57:37.218Z,68.80
2022-09-28T01:00:04.553Z,69.10
2022-09-28T01:02:31.264Z,70.20
2022-09-28T01:04:59.259Z,71.90
2022-09-28T01:07:26.420Z,72.00
2022-09-28T01:09:54.097Z,71.00
2022-09-28T01:12:20.652Z,69.20
2022-09-28T01:14:48.241Z,69.20
2022-09-28T01:17:24.511Z,69.70
2022-09-28T01:19:51.296Z,72.00
2022-09-28T01:22:35.608Z,70.30
2022-09-28T01:25:14.378Z,69.20
2022-09-28T01:27:46.915Z,69.20
2022-09-28T01:30:17.078Z,70.50
2022-09-28T01:33:03.717Z,70.50
2022-09-28T01:35:33.582Z,69.10
2022-09-28T01:38:06.505Z,69.10
2022-09-28T01:40:34.385Z,69.80
2022-09-28T01:43:03.248Z,69.80
2022-09-28T01:45:33.908Z,70.70
2022-09-28T01:48:02.820Z,71.60
2022-09-28T01:50:30.778Z,71.90
2022-09-28T01:53:03.953Z,72.50
2022-09-28T01:58:30.118Z,73.80
2022-09-28T02:01:00.316Z,73.70
2022-09-28T02:03:34.479Z,73.20
2022-09-28T02:06:05.541Z,74.50
2022-09-28T02:08:37.463Z,75.00
2022-09-28T02:11:08.357Z,76.10
2022-09-28T02:13:40.766Z,77.40
2022-09-28T02:16:15.068Z,77.40
2022-09-28T02:18:41.955Z,77.40
2022-09-28T02:21:15.136Z,77.40
2022-09-28T02:23:46.200Z,77.40
2022-09-28T02:26:13.981Z,77.40
2022-09-28T02:28:40.488Z,77.50
2022-09-28T02:31:07.094Z,77.50
2022-09-28T02:33:36.364Z,77.40
2022-09-28T02:36:05.441Z,78.30
2022-09-28T02:38:32.405Z,77.60
2022-09-28T02:41:16.103Z,78.90
2022-09-28T02:44:00.166Z,80.40
2022-09-28T02:46:29.628Z,81.00
2022-09-28T02:49:21.669Z,80.10
2022-09-28T02:52:06.827Z,81.00
2022-09-28T02:54:51.972Z,82.00
2022-09-28T02:57:25.232Z,83.50
2022-09-28T03:00:11.461Z,85.80
2022-09-28T03:02:56.647Z,82.30
2022-09-28T03:05:29.757Z,79.90
2022-09-28T03:08:00.188Z,79.80
2022-09-28T03:10:37.179Z,82.90
2022-09-28T03:13:04.354Z,82.80
2022-09-28T03:15:32.476Z,82.60
2022-09-28T03:17:59.168Z,85.50
2022-09-28T03:20:26.428Z,86.50
2022-09-28T03:23:19.657Z,85.60
2022-09-28T03:25:39.504Z,85.60
2022-09-28T03:28:05.992Z,85.10
2022-09-28T03:30:32.510Z,84.40
2022-09-28T03:33:00.181Z,84.40
2022-09-28T03:35:26.706Z,85.50
2022-09-28T03:37:56.576Z,85.70
2022-09-28T03:40:23.178Z,85.50
2022-09-28T03:42:49.818Z,85.60
2022-09-28T03:45:16.400Z,85.60
2022-09-28T03:47:46.261Z,85.60
2022-09-28T03:50:13.290Z,85.60
2022-09-28T03:52:39.844Z,85.70
2022-09-28T03:55:06.611Z,85.60
2022-09-28T03:57:33.117Z,85.60
2022-09-28T03:59:59.929Z,85.70
2022-09-28T04:02:26.555Z,85.70
2022-09-28T04:04:53.170Z,86.50
2022-09-28T04:07:19.689Z,87.10
2022-09-28T04:09:46.226Z,86.80
2022-09-28T04:12:12.742Z,87.20
2022-09-28T04:14:39.320Z,88.10
2022-09-28T04:17:07.102Z,88.80
2022-09-28T04:19:33.747Z,88.10
2022-09-28T04:22:01.657Z,89.10
2022-09-28T04:24:28.258Z,89.60
2022-09-28T04:27:14.728Z,90.40
2022-09-28T04:29:41.673Z,90.70
2022-09-28T04:32:08.237Z,91.10
2022-09-28T04:34:37.215Z,90.70
2022-09-28T04:37:05.342Z,90.90
2022-09-28T04:39:31.853Z,90.20
2022-09-28T04:41:58.442Z,90.20
2022-09-28T04:44:24.916Z,90.60
2022-09-28T04:46:51.413Z,91.00
2022-09-28T04:49:18.086Z,91.30
2022-09-28T04:51:44.735Z,91.30
2022-09-28T04:54:11.316Z,91.70
2022-09-28T04:56:37.900Z,91.70
2022-09-28T04:59:04.461Z,91.70
2022-09-28T05:01:31.171Z,91.70
2022-09-28T05:03:57.723Z,91.70
2022-09-28T05:06:27.937Z,91.70
2022-09-28T05:08:57.434Z,91.70
2022-09-28T05:11:24.113Z,91.70
2022-09-28T05:13:50.713Z,91.70
2022-09-28T05:16:17.579Z,91.80
2022-09-28T05:18:44.103Z,91.70
2022-09-28T05:21:11.410Z,91.80
2022-09-28T05:23:38.059Z,91.70
2022-09-28T05:26:04.674Z,91.70
2022-09-28T05:28:31.682Z,91.30
2022-09-28T05:31:02.403Z,90.80
2022-09-28T05:33:29.541Z,90.90
2022-09-28T05:36:00.895Z,91.50
2022-09-28T05:38:28.447Z,91.70
2022-09-28T05:40:55.258Z,91.80
2022-09-28T05:43:21.870Z,91.80
2022-09-28T05:45:52.911Z,91.70
2022-09-28T05:48:21.963Z,92.50
2022-09-28T05:50:52.582Z,92.60
2022-09-28T05:53:19.625Z,92.50
2022-09-28T05:55:46.674Z,92.40
2022-09-28T05:58:13.299Z,92.20
2022-09-28T06:00:40.120Z,91.80
2022-09-28T06:03:09.374Z,91.80
2022-09-28T06:05:36.734Z,91.80
2022-09-28T06:08:05.048Z,91.90
2022-09-28T06:10:32.121Z,91.90
2022-09-28T06:12:58.687Z,91.60
2022-09-28T06:15:26.840Z,91.50
2022-09-28T06:17:57.285Z,91.40
2022-09-28T06:20:24.388Z,90.70
2022-09-28T06:22:52.723Z,90.70
2022-09-28T06:25:19.473Z,90.00
2022-09-28T06:27:55.322Z,90.20
2022-09-28T06:30:22.287Z,89.80
2022-09-28T06:32:51.780Z,86.90
2022-09-28T06:35:18.819Z,85.90
2022-09-28T06:37:45.418Z,86.00
2022-09-28T06:40:11.974Z,83.50
2022-09-28T06:42:38.533Z,83.00
2022-09-28T06:45:08.393Z,82.20
2022-09-28T06:47:35.211Z,78.50
2022-09-28T06:50:01.726Z,79.50
2022-09-28T06:52:28.260Z,78.40
2022-09-28T06:54:54.811Z,78.10
2022-09-28T06:57:21.313Z,78.10
2022-09-28T06:59:47.843Z,79.00
2022-09-28T07:02:14.502Z,78.10
2022-09-28T07:04:42.037Z,78.20
2022-09-28T07:07:10.420Z,76.60
2022-09-28T07:09:42.225Z,77.10
2022-09-28T07:12:13.306Z,76.30
2022-09-28T07:14:47.926Z,76.50
2022-09-28T07:17:15.292Z,73.50
2022-09-28T07:19:42.065Z,71.30
2022-09-28T07:22:08.569Z,70.10
2022-09-28T07:24:35.113Z,70.10
2022-09-28T07:27:04.972Z,71.10
2022-09-28T07:29:31.459Z,72.00
2022-09-28T07:31:57.974Z,70.90
2022-09-28T07:34:24.564Z,70.20
2022-09-28T07:36:51.906Z,70.30
2022-09-28T07:39:18.425Z,70.40
2022-09-28T07:41:44.917Z,70.30
2022-09-28T07:44:11.413Z,68.20
2022-09-28T07:46:38.008Z,70.30
2022-09-28T07:49:08.423Z,67.80
2022-09-28T07:51:38.293Z,66.40
2022-09-28T07:54:06.582Z,66.20
2022-09-28T07:56:34.908Z,63.90
2022-09-28T07:59:01.450Z,62.90
2022-09-28T08:01:30.454Z,61.90
2022-09-28T08:03:57.107Z,62.10
2022-09-28T08:06:23.635Z,61.10
2022-09-28T08:08:50.267Z,60.10
2022-09-28T08:11:18.696Z,54.10
2022-09-28T08:13:46.393Z,50.10
2022-09-28T08:16:13.049Z,42.10
2022-09-28T08:18:39.686Z,38.20
2022-09-28T08:21:25.376Z,37.20
2022-09-28T08:23:52.854Z,38.80
2022-09-28T08:26:19.478Z,43.10
2022-09-28T08:28:47.618Z,45.50
2022-09-28T08:31:14.177Z,50.10
2022-09-28T08:33:42.024Z,49.60
2022-09-28T08:36:09.801Z,51.40
2022-09-28T08:38:36.296Z,53.50
2022-09-28T08:41:05.748Z,53.50
2022-09-28T08:43:41.357Z,54.20
2022-09-28T08:46:11.744Z,57.30
2022-09-28T08:48:52.254Z,51.50
2022-09-28T08:51:28.112Z,53.40
2022-09-28T08:54:00.825Z,54.70
2022-09-28T08:56:35.189Z,54.70
2022-09-28T08:59:03.219Z,53.20
2022-09-28T09:01:37.209Z,27.90
2022-09-28T09:04:05.228Z,17.60
2022-09-28T09:06:44.642Z,15.20
2022-09-28T09:09:18.199Z,8.20
2022-09-28T09:11:44.760Z,7.00
2022-09-28T09:14:20.960Z,10.80
2022-09-28T09:17:00.590Z,14.10
2022-09-28T09:19:36.173Z,15.10
2022-09-28T09:22:11.162Z,18.10
2022-09-28T09:24:56.972Z,19.70
2022-09-28T09:27:41.642Z,22.30
2022-09-28T09:30:13.049Z,23.90
2022-09-28T09:32:45.911Z,27.00
2022-09-28T09:35:19.675Z,23.70
2022-09-28T09:37:47.233Z,22.70
2022-09-28T09:40:32.449Z,22.60
2022-09-28T09:43:08.258Z,22.50
2022-09-28T09:45:46.874Z,22.70
2022-09-28T09:48:17.380Z,22.60
2022-09-28T09:50:47.087Z,21.70
2022-09-28T09:53:16.376Z,23.20
2022-09-28T09:55:46.775Z,20.90
2022-09-28T09:58:19.292Z,14.70
2022-09-28T10:00:47.878Z,9.10
2022-09-28T10:03:19.476Z,3.30
2022-09-28T10:05:50.147Z,3.00
2022-09-28T10:08:19.918Z,1.00
2022-09-28T10:10:49.450Z,3.80
2022-09-28T10:13:15.957Z,2.60
2022-09-28T10:15:42.670Z,1.00
2022-09-28T10:18:13.272Z,1.00
2022-09-28T10:20:40.802Z,1.00
2022-09-28T10:23:14.397Z,1.00
2022-09-28T10:25:43.109Z,1.00
2022-09-28T10:28:12.412Z,1.00
2022-09-28T10:30:41.999Z,1.00
2022-09-28T10:33:26.485Z,1.00
2022-09-28T10:35:53.129Z,1.00
2022-09-28T10:38:19.682Z,1.00
2022-09-28T10:40:46.178Z,1.00
2022-09-28T10:43:18.636Z,1.00
2022-09-28T10:45:45.329Z,1.00
2022-09-28T10:48:20.969Z,1.00
2022-09-28T10:50:57.738Z,1.00
2022-09-28T10:53:24.224Z,1.00
2022-09-28T10:55:56.557Z,1.00
2022-09-28T10:58:27.302Z,1.00
2022-09-28T11:00:59.690Z,1.00
2022-09-28T11:03:27.304Z,1.00
2022-09-28T11:06:03.752Z,1.00
2022-09-28T11:08:36.379Z,1.00
2022-09-28T11:11:07.906Z,1.00
2022-09-28T11:13:38.893Z,1.00
2022-09-28T11:16:05.548Z,1.00
2022-09-28T11:18:33.644Z,1.00
2022-09-28T11:21:32.080Z,1.00
2022-09-28T11:24:06.960Z,1.00
2022-09-28T11:26:38.356Z,1.00
2022-09-28T11:29:05.363Z,1.00
2022-09-28T11:31:31.913Z,1.00
2022-09-28T11:34:16.515Z,1.00
2022-09-28T11:37:00.877Z,1.00
2022-09-28T11:39:35.553Z,1.00
2022-09-28T11:42:10.962Z,1.00
2022-09-28T11:44:44.792Z,1.00
2022-09-28T11:47:27.741Z,1.00
2022-09-28T11:49:59.093Z,1.00
2022-09-28T11:52:36.857Z,1.00
2022-09-28T11:55:06.467Z,1.00
2022-09-28T11:57:36.633Z,1.00
2022-09-28T12:00:08.967Z,1.00
2022-09-28T12:02:39.545Z,1.00
2022-09-28T12:05:15.835Z,1.00
2022-09-28T12:07:47.292Z,1.00
2022-09-28T12:10:20.499Z,1.00
2022-09-28T12:12:54.169Z,1.00
2022-09-28T12:15:30.591Z,1.00
2022-09-28T12:18:03.654Z,1.00
2022-09-28T12:20:34.383Z,1.00
2022-09-28T12:23:07.063Z,1.00
2022-09-28T12:25:42.485Z,1.00
2022-09-28T12:28:15.410Z,1.00
2022-09-28T12:30:43.779Z,1.00
2022-09-28T12:33:15.212Z,1.00
2022-09-28T12:35:44.774Z,1.00
2022-09-28T12:38:20.204Z,1.00
2022-09-28T12:40:58.944Z,1.00
2022-09-28T12:43:45.155Z,1.00
2022-09-28T12:46:30.406Z,1.00
2022-09-28T12:51:52.223Z,1.00
2022-09-28T12:54:34.402Z,1.00
2022-09-28T12:57:08.316Z,1.00
2022-09-28T12:59:39.582Z,1.00
2022-09-28T13:02:24.923Z,1.00
2022-09-28T13:05:10.292Z,1.00
2022-09-28T13:07:50.895Z,1.00
2022-09-28T13:10:32.572Z,1.00
2022-09-28T13:13:23.060Z,1.00
2022-09-28T13:15:49.640Z,1.00
2022-09-28T13:18:16.170Z,1.00
2022-09-28T13:21:01.199Z,1.00
2022-09-28T13:23:29.797Z,1.00
2022-09-28T13:26:03.188Z,1.00
2022-09-28T13:28:31.581Z,1.00
2022-09-28T13:33:39.439Z,1.00
2022-09-28T13:36:24.497Z,1.00
2022-09-28T13:38:51.965Z,1.00
2022-09-28T13:41:21.088Z,1.00
2022-09-28T13:43:54.640Z,1.00
2022-09-28T13:46:33.605Z,1.00
2022-09-28T13:49:15.197Z,1.00
2022-09-28T13:51:47.305Z,1.00
2022-09-28T13:54:13.852Z,1.00
2022-09-28T13:56:51.956Z,1.00
2022-09-28T13:59:28.725Z,1.00
2022-09-28T14:02:06.763Z,1.00
2022-09-28T14:05:03.459Z,1.00
2022-09-28T14:07:36.027Z,1.00
2022-09-28T14:10:24.557Z,1.00
2022-09-28T14:12:54.863Z,1.00
2022-09-28T14:15:38.907Z,1.00
2022-09-28T14:18:11.461Z,1.00
2022-09-28T14:20:42.423Z,1.00
2022-09-28T14:23:25.194Z,1.00
2022-09-28T14:26:06.864Z,1.00
2022-09-28T14:28:53.670Z,1.00
2022-09-28T14:31:27.737Z,1.00
2022-09-28T14:33:58.294Z,1.00
2022-09-28T14:36:47.203Z,1.00
2022-09-28T14:39:39.669Z,1.00
2022-09-28T14:42:11.041Z,1.00
2022-09-28T14:44:56.605Z,1.00
2022-09-28T14:47:34.877Z,1.00
2022-09-28T14:50:02.450Z,1.00
2022-09-28T14:52:40.319Z,1.00
2022-09-28T14:55:14.857Z,1.00
2022-09-28T14:57:42.053Z,1.00
2022-09-28T15:00:25.810Z,1.00
2022-09-28T15:02:54.075Z,1.00
2022-09-28T15:05:24.512Z,1.00
2022-09-28T15:07:52.186Z,1.00
2022-09-28T15:10:31.152Z,1.00
2022-09-28T15:13:01.204Z,1.00
2022-09-28T15:15:31.623Z,1.00
2022-09-28T15:18:02.527Z,1.00
2022-09-28T15:20:30.452Z,1.00
2022-09-28T15:23:00.030Z,1.00
2022-09-28T15:25:30.527Z,1.00
2022-09-28T15:28:04.545Z,1.00
2022-09-28T15:30:32.833Z,1.00
2022-09-28T15:33:18.671Z,1.00
2022-09-28T15:36:05.682Z,1.00
2022-09-28T15:38:34.071Z,1.00
2022-09-28T15:41:04.399Z,1.00
2022-09-28T15:43:37.575Z,1.00
2022-09-28T15:46:04.163Z,1.00
2022-09-28T15:48:43.036Z,1.00
2022-09-28T15:51:11.654Z,1.00
2022-09-28T15:54:02.865Z,1.00
2022-09-28T15:56:29.916Z,1.00
2022-09-28T15:59:14.932Z,6.90
2022-09-28T16:01:45.148Z,9.30
2022-09-28T16:04:30.249Z,14.10
2022-09-28T16:07:15.582Z,15.60
2022-09-28T16:09:55.852Z,20.80
2022-09-28T16:12:23.098Z,22.30
2022-09-28T16:14:51.305Z,24.30
2022-09-28T16:17:38.341Z,26.20
2022-09-28T16:20:25.174Z,24.70
2022-09-28T16:22:53.568Z,24.00
2022-09-28T16:25:23.812Z,24.10
2022-09-28T16:27:51.301Z,25.80
2022-09-28T16:30:20.106Z,29.20
2022-09-28T16:33:03.202Z,31.10
2022-09-28T16:35:48.690Z,30.30
2022-09-28T16:38:16.460Z,31.00
2022-09-28T16:40:46.089Z,31.00
2022-09-28T16:43:26.589Z,33.50
2022-09-28T16:45:57.440Z,32.50
2022-09-28T16:48:27.561Z,35.00
2022-09-28T16:50:54.520Z,35.80
2022-09-28T16:53:39.503Z,41.70
2022-09-28T16:56:06.143Z,41.70
2022-09-28T16:58:33.609Z,43.30
2022-09-28T17:01:00.475Z,43.90
2022-09-28T17:03:27.914Z,36.90
2022-09-28T17:05:57.772Z,41.20
2022-09-28T17:08:24.763Z,41.30
2022-09-28T17:11:13.984Z,37.10
2022-09-28T17:13:42.305Z,37.90
2022-09-28T17:16:11.845Z,40.20
2022-09-28T17:18:39.778Z,41.60
2022-09-28T17:21:07.522Z,43.40
2022-09-28T17:23:34.064Z,43.90
2022-09-28T17:26:01.544Z,45.30
2022-09-28T17:28:30.761Z,42.50
2022-09-28T17:30:57.646Z,43.00
2022-09-28T17:33:24.353Z,44.50
2022-09-28T17:35:52.452Z,48.50
2022-09-28T17:38:18.963Z,50.30
2022-09-28T17:40:46.818Z,51.80
2022-09-28T17:43:13.441Z,51.70
2022-09-28T17:45:40.923Z,45.70
2022-09-28T17:48:12.208Z,50.70
2022-09-28T17:50:41.213Z,51.60
2022-09-28T17:53:10.206Z,57.10
2022-09-28T17:55:37.642Z,58.10
2022-09-28T17:58:16.666Z,57.90
2022-09-28T18:00:43.737Z,60.40
2022-09-28T18:03:12.967Z,61.50
2022-09-28T18:05:39.515Z,61.50
2022-09-28T18:08:06.025Z,63.00
2022-09-28T18:10:32.523Z,65.90
2022-09-28T18:12:59.098Z,67.50
2022-09-28T18:15:25.636Z,69.20
2022-09-28T18:17:52.175Z,64.50
2022-09-28T18:20:18.716Z,62.70
2022-09-28T18:22:45.266Z,61.20
2022-09-28T18:25:11.859Z,60.00
2022-09-28T18:27:38.457Z,61.20
2022-09-28T18:30:05.535Z,61.20
2022-09-28T18:32:33.710Z,63.00
2022-09-28T18:35:00.230Z,63.00
2022-09-28T18:37:26.716Z,62.90
2022-09-28T18:39:53.284Z,64.30
2022-09-28T18:42:20.585Z,64.40
2022-09-28T18:44:47.150Z,64.80
2022-09-28T18:47:15.069Z,64.80
2022-09-28T18:49:46.448Z,65.60
2022-09-28T18:52:13.296Z,66.30
2022-09-28T18:54:40.213Z,68.00
2022-09-28T18:57:06.721Z,69.80
2022-09-28T18:59:33.278Z,69.90
2022-09-28T19:02:01.666Z,69.90
2022-09-28T19:04:28.456Z,69.80
2022-09-28T19:06:55.316Z,69.80
2022-09-28T19:09:23.072Z,69.80
2022-09-28T19:11:49.662Z,70.30
2022-09-28T19:14:16.287Z,69.80
2022-09-28T19:16:43.954Z,70.20
2022-09-28T19:19:12.558Z,70.40
2022-09-28T19:21:39.722Z,69.70
2022-09-28T19:24:06.544Z,69.70
2022-09-28T19:26:33.499Z,69.70
2022-09-28T19:29:00.710Z,69.60
2022-09-28T19:31:27.467Z,69.60
2022-09-28T19:33:54.020Z,69.60
2022-09-28T19:36:23.572Z,69.50
2022-09-28T19:38:51.549Z,69.50
2022-09-28T19:41:39.315Z,69.50
2022-09-28T19:44:13.357Z,69.60
2022-09-28T19:46:40.560Z,69.30
2022-09-28T19:49:13.957Z,69.40
2022-09-28T19:51:56.570Z,69.30
2022-09-28T19:54:32.058Z,69.30
2022-09-28T19:57:07.381Z,69.20
2022-09-28T19:59:34.712Z,68.70
2022-09-28T20:02:02.033Z,67.80
2022-09-28T20:04:28.939Z,67.90
2022-09-28T20:06:55.474Z,68.90
2022-09-28T20:09:22.042Z,67.50
2022-09-28T20:11:48.738Z,68.00
2022-09-28T20:14:16.061Z,69.70
2022-09-28T20:16:43.010Z,69.80
2022-09-28T20:19:09.644Z,69.70
2022-09-28T20:21:36.204Z,69.70
2022-09-28T20:24:03.349Z,69.60
2022-09-28T20:26:29.897Z,70.10
2022-09-28T20:28:56.647Z,70.90
2022-09-28T20:31:24.419Z,71.20
2022-09-28T20:33:51.661Z,72.00
2022-09-28T20:36:22.333Z,72.70
2022-09-28T20:38:53.210Z,73.60
2022-09-28T20:41:21.825Z,74.30
2022-09-28T20:43:52.191Z,74.10
2022-09-28T20:46:19.806Z,73.80
2022-09-28T20:48:49.322Z,74.20
2022-09-28T20:51:17.536Z,74.60
2022-09-28T20:53:47.319Z,74.90
2022-09-28T20:56:16.682Z,75.40
2022-09-28T20:58:43.266Z,76.90
2022-09-28T21:01:11.117Z,77.70
2022-09-28T21:03:38.217Z,77.70
2022-09-28T21:06:08.797Z,77.70
2022-09-28T21:08:38.732Z,77.70
2022-09-28T21:11:06.435Z,77.50
2022-09-28T21:13:33.246Z,76.00
2022-09-28T21:16:03.533Z,75.80
2022-09-28T21:18:30.649Z,76.00
2022-09-28T21:20:57.254Z,76.20
2022-09-28T21:23:25.013Z,77.00
2022-09-28T21:26:01.059Z,77.60
2022-09-28T21:28:27.584Z,77.60
2022-09-28T21:30:54.253Z,77.60
2022-09-28T21:33:20.868Z,77.50
2022-09-28T21:35:47.518Z,77.40
2022-09-28T21:38:14.048Z,77.50
2022-09-28T21:40:41.765Z,77.50
2022-09-28T21:43:08.436Z,77.50
2022-09-28T21:45:35.021Z,77.50
2022-09-28T21:48:01.618Z,77.50
2022-09-28T21:50:28.201Z,77.40
2022-09-28T21:52:55.433Z,77.40
2022-09-28T21:55:22.763Z,77.40
2022-09-28T21:57:53.088Z,77.30
2022-09-28T22:00:20.653Z,77.30
2022-09-28T22:02:47.189Z,77.30
2022-09-28T22:05:13.837Z,76.50
2022-09-28T22:07:41.181Z,74.60
2022-09-28T22:10:10.432Z,73.20
2022-09-28T22:12:37.160Z,72.90
2022-09-28T22:15:05.221Z,73.20
2022-09-28T22:17:31.764Z,72.90
2022-09-28T22:19:58.417Z,73.10
2022-09-28T22:22:29.034Z,75.00
2022-09-28T22:24:56.393Z,77.10
2022-09-28T22:27:23.987Z,77.00
2022-09-28T22:29:51.012Z,77.10
2022-09-28T22:32:17.517Z,77.00
2022-09-28T22:34:44.079Z,77.00
2022-09-28T22:37:10.607Z,76.70
2022-09-28T22:39:37.978Z,77.00
2022-09-28T22:42:04.721Z,76.80
2022-09-28T22:44:31.335Z,76.90
2022-09-28T22:46:58.028Z,76.90
2022-09-28T22:49:24.547Z,76.90
2022-09-28T22:51:51.539Z,76.90
2022-09-28T22:54:18.426Z,76.90
2022-09-28T22:56:45.128Z,76.90
2022-09-28T22:59:11.984Z,76.90
2022-09-28T23:01:38.722Z,76.90
2022-09-28T23:04:05.795Z,78.80
2022-09-28T23:06:33.175Z,79.10
2022-09-28T23:09:00.018Z,79.60
2022-09-28T23:11:27.173Z,78.90
2022-09-28T23:13:54.591Z,78.10
2022-09-28T23:16:23.332Z,76.80
2022-09-28T23:18:50.133Z,76.80
2022-09-28T23:21:18.256Z,76.90
2022-09-28T23:23:45.353Z,76.80
2022-09-28T23:26:11.901Z,76.80
2022-09-28T23:28:38.443Z,76.80
2022-09-28T23:31:12.292Z,76.80
2022-09-28T23:33:39.095Z,77.50
2022-09-28T23:36:05.926Z,78.10
2022-09-28T23:38:32.543Z,79.40
2022-09-28T23:40:59.093Z,79.20
2022-09-28T23:43:25.695Z,78.60
2022-09-28T23:45:52.223Z,78.60
2022-09-28T23:48:18.735Z,79.20
2022-09-28T23:50:45.553Z,76.90
2022-09-28T23:53:13.560Z,76.90
2022-09-28T23:55:41.175Z,76.00
2022-09-28T23:58:07.771Z,76.90
